createdAt,value
2022-11-07T00:01:41.618Z,10.90
2022-11-07T00:04:08.390Z,10.90
2022-11-07T00:06:37.792Z,10.90
2022-11-07T00:09:04.890Z,10.90
2022-11-07T00:11:31.847Z,10.90
2022-11-07T00:13:58.740Z,11.00
2022-11-07T00:16:26.733Z,10.90
2022-11-07T00:18:53.492Z,11.00
2022-11-07T00:21:20.238Z,11.00
2022-11-07T00:23:47.404Z,11.00
2022-11-07T00:26:15.126Z,11.00
2022-11-07T00:28:43.898Z,11.00
2022-11-07T00:31:13.946Z,11.00
2022-11-07T00:33:42.057Z,11.10
2022-11-07T00:36:10.753Z,11.10
2022-11-07T00:38:37.518Z,11.10
2022-11-07T00:41:07.282Z,11.10
2022-11-07T00:43:34.490Z,11.10
2022-11-07T00:46:03.932Z,11.10
2022-11-07T00:48:32.253Z,11.20
2022-11-07T00:51:23.189Z,11.20
2022-11-07T00:53:51.099Z,11.20
2022-11-07T00:56:22.428Z,11.20
2022-11-07T00:58:49.307Z,11.20
2022-11-07T01:01:21.581Z,11.20
2022-11-07T01:04:08.674Z,11.10
2022-11-07T01:06:38.936Z,11.20
2022-11-07T01:09:13.686Z,11.10
2022-11-07T01:11:42.368Z,11.20
2022-11-07T01:14:10.183Z,11.10
2022-11-07T01:16:38.975Z,11.10
2022-11-07T01:19:07.154Z,11.20
2022-11-07T01:21:34.851Z,11.20
2022-11-07T01:24:03.541Z,11.20
2022-11-07T01:26:30.310Z,11.10
2022-11-07T01:28:57.241Z,11.10
2022-11-07T01:31:24.041Z,11.10
2022-11-07T01:33:50.923Z,11.10
2022-11-07T01:36:18.804Z,11.20
2022-11-07T01:38:48.802Z,11.10
2022-11-07T01:41:22.208Z,11.20
2022-11-07T01:44:25.142Z,11.20
2022-11-07T01:46:57.380Z,11.20
2022-11-07T01:49:34.967Z,11.20
2022-11-07T01:52:18.969Z,11.30
2022-11-07T01:54:52.835Z,11.30
2022-11-07T01:57:30.103Z,11.30
2022-11-07T02:00:02.272Z,11.30
2022-11-07T02:02:29.229Z,11.20
2022-11-07T02:05:00.786Z,11.20
2022-11-07T02:07:30.004Z,11.20
2022-11-07T02:09:57.163Z,11.20
2022-11-07T02:12:26.529Z,11.20
2022-11-07T02:14:55.932Z,11.20
2022-11-07T02:17:22.865Z,11.20
2022-11-07T02:19:56.594Z,11.20
2022-11-07T02:22:53.871Z,11.20
2022-11-07T02:25:21.197Z,11.20
2022-11-07T02:27:53.512Z,11.20
2022-11-07T02:30:25.977Z,11.30
2022-11-07T02:32:52.782Z,11.30
2022-11-07T02:35:34.864Z,11.30
2022-11-07T02:38:16.167Z,11.30
2022-11-07T02:40:47.170Z,11.30
2022-11-07T02:43:18.644Z,11.30
2022-11-07T02:45:48.972Z,11.30
2022-11-07T02:48:15.823Z,11.30
2022-11-07T02:50:43.065Z,11.30
2022-11-07T02:53:10.090Z,11.40
2022-11-07T02:55:37.055Z,11.40
2022-11-07T02:58:04.183Z,11.40
2022-11-07T03:00:30.995Z,11.40
2022-11-07T03:02:59.303Z,11.40
2022-11-07T03:05:26.124Z,11.50
2022-11-07T03:07:52.877Z,11.50
2022-11-07T03:10:19.607Z,11.50
2022-11-07T03:12:46.736Z,11.50
2022-11-07T03:15:15.050Z,11.50
2022-11-07T03:17:42.377Z,11.60
2022-11-07T03:20:10.439Z,11.60
2022-11-07T03:22:37.772Z,11.60
2022-11-07T03:25:06.710Z,11.60
2022-11-07T03:27:33.785Z,11.70
2022-11-07T03:30:00.566Z,11.70
2022-11-07T03:32:27.428Z,11.70
2022-11-07T03:34:54.127Z,11.70
2022-11-07T03:37:20.856Z,11.80
2022-11-07T03:39:47.571Z,11.80
2022-11-07T03:42:14.364Z,11.80
2022-11-07T03:44:41.086Z,11.90
2022-11-07T03:47:07.844Z,11.90
2022-11-07T03:49:34.639Z,11.90
2022-11-07T03:52:01.427Z,12.00
2022-11-07T03:54:28.188Z,12.00
2022-11-07T03:56:54.887Z,12.00
2022-11-07T03:59:21.604Z,12.10
2022-11-07T04:01:48.541Z,12.10
2022-11-07T04:04:15.444Z,12.10
2022-11-07T04:06:42.206Z,12.20
2022-11-07T04:09:09.207Z,12.20
2022-11-07T04:11:54.485Z,12.20
2022-11-07T04:14:39.842Z,12.30
2022-11-07T04:17:21.017Z,12.30
2022-11-07T04:19:51.123Z,12.30
2022-11-07T04:22:18.855Z,12.30
2022-11-07T04:24:46.384Z,12.40
2022-11-07T04:27:33.997Z,12.40
2022-11-07T04:30:19.187Z,12.40
2022-11-07T04:32:48.355Z,12.50
2022-11-07T04:35:16.016Z,12.50
2022-11-07T04:37:43.445Z,12.50
2022-11-07T04:40:11.777Z,12.50
2022-11-07T04:42:39.319Z,12.50
2022-11-07T04:45:07.336Z,12.50
2022-11-07T04:47:37.740Z,12.60
2022-11-07T04:50:13.095Z,12.60
2022-11-07T04:52:40.186Z,12.60
2022-11-07T04:55:10.115Z,12.60
2022-11-07T04:57:36.883Z,12.60
2022-11-07T05:00:04.792Z,12.60
2022-11-07T05:02:31.706Z,12.70
2022-11-07T05:04:58.571Z,12.70
2022-11-07T05:07:25.382Z,12.70
2022-11-07T05:09:52.152Z,12.70
2022-11-07T05:12:19.009Z,12.80
2022-11-07T05:14:45.752Z,12.70
2022-11-07T05:17:15.380Z,12.70
2022-11-07T05:19:43.672Z,12.70
2022-11-07T05:22:30.289Z,12.70
2022-11-07T05:24:57.085Z,12.70
2022-11-07T05:27:24.935Z,12.80
2022-11-07T05:29:52.166Z,12.80
2022-11-07T05:32:19.041Z,12.80
2022-11-07T05:34:45.800Z,12.80
2022-11-07T05:37:13.802Z,12.80
2022-11-07T05:39:40.688Z,12.80
2022-11-07T05:42:08.518Z,12.70
2022-11-07T05:44:35.316Z,12.70
2022-11-07T05:47:02.087Z,12.80
2022-11-07T05:49:28.899Z,12.80
2022-11-07T05:51:56.620Z,12.80
2022-11-07T05:54:24.655Z,12.70
2022-11-07T05:56:55.429Z,12.80
2022-11-07T05:59:22.137Z,12.80
2022-11-07T06:01:51.291Z,12.80
2022-11-07T06:04:18.509Z,12.80
2022-11-07T06:06:45.563Z,12.90
2022-11-07T06:09:12.295Z,12.90
2022-11-07T06:11:39.241Z,13.00
2022-11-07T06:14:06.125Z,12.90
2022-11-07T06:16:32.936Z,12.90
2022-11-07T06:18:59.680Z,12.90
2022-11-07T06:21:26.395Z,12.90
2022-11-07T06:23:53.164Z,13.00
2022-11-07T06:26:19.915Z,12.90
2022-11-07T06:28:46.623Z,13.00
2022-11-07T06:31:13.416Z,13.00
2022-11-07T06:33:40.156Z,12.80
2022-11-07T06:36:12.896Z,13.00
2022-11-07T06:38:40.465Z,13.00
2022-11-07T06:41:13.729Z,13.00
2022-11-07T06:43:41.263Z,13.00
2022-11-07T06:46:12.419Z,13.00
2022-11-07T06:48:39.622Z,13.10
2022-11-07T06:51:07.754Z,13.10
2022-11-07T06:53:34.607Z,13.10
2022-11-07T06:56:03.498Z,13.10
2022-11-07T06:58:30.821Z,13.10
2022-11-07T07:01:02.549Z,13.10
2022-11-07T07:03:29.761Z,13.10
2022-11-07T07:06:02.429Z,13.10
2022-11-07T07:08:29.663Z,13.10
2022-11-07T07:10:56.713Z,13.10
2022-11-07T07:13:23.436Z,13.20
2022-11-07T07:15:54.883Z,13.20
2022-11-07T07:18:22.614Z,13.20
2022-11-07T07:20:51.044Z,13.20
2022-11-07T07:23:20.093Z,13.30
2022-11-07T07:25:47.921Z,13.30
2022-11-07T07:28:15.064Z,13.30
2022-11-07T07:30:43.880Z,13.30
2022-11-07T07:33:14.437Z,13.40
2022-11-07T07:35:41.414Z,13.40
2022-11-07T07:38:08.196Z,13.40
2022-11-07T07:40:34.913Z,13.50
2022-11-07T07:43:01.657Z,13.50
2022-11-07T07:45:28.432Z,13.50
2022-11-07T07:48:02.459Z,13.50
2022-11-07T07:50:29.597Z,13.60
2022-11-07T07:52:58.426Z,13.60
2022-11-07T07:55:25.771Z,13.60
2022-11-07T07:57:52.611Z,13.70
2022-11-07T08:00:19.674Z,13.70
2022-11-07T08:02:46.410Z,13.80
2022-11-07T08:05:15.399Z,13.80
2022-11-07T08:07:51.066Z,13.80
2022-11-07T08:10:40.974Z,13.90
2022-11-07T08:13:06.635Z,13.90
2022-11-07T08:15:33.400Z,13.80
2022-11-07T08:18:04.867Z,13.80
2022-11-07T08:20:32.039Z,13.80
2022-11-07T08:23:15.810Z,13.90
2022-11-07T08:25:55.210Z,13.80
2022-11-07T08:28:24.941Z,13.80
2022-11-07T08:31:05.066Z,14.20
2022-11-07T08:33:32.183Z,13.80
2022-11-07T08:36:01.627Z,13.80
2022-11-07T08:38:33.620Z,13.80
2022-11-07T08:41:00.976Z,13.80
2022-11-07T08:43:28.119Z,13.80
2022-11-07T08:45:56.230Z,13.80
2022-11-07T08:48:24.087Z,13.80
2022-11-07T08:50:56.786Z,13.90
2022-11-07T08:53:26.272Z,13.90
2022-11-07T08:55:53.013Z,13.90
2022-11-07T08:58:21.263Z,14.00
2022-11-07T09:00:50.372Z,14.00
2022-11-07T09:03:43.712Z,14.10
2022-11-07T09:06:05.459Z,14.20
2022-11-07T09:08:33.624Z,14.30
2022-11-07T09:11:05.813Z,14.30
2022-11-07T09:13:34.601Z,14.50
2022-11-07T09:16:04.804Z,14.50
2022-11-07T09:18:32.732Z,14.60
2022-11-07T09:20:59.771Z,14.70
2022-11-07T09:23:27.671Z,14.80
2022-11-07T09:25:54.792Z,14.90
2022-11-07T09:28:21.509Z,15.00
2022-11-07T09:30:54.446Z,15.20
2022-11-07T09:33:21.618Z,15.20
2022-11-07T09:35:48.954Z,15.30
2022-11-07T09:38:16.630Z,15.40
2022-11-07T09:41:07.010Z,15.40
2022-11-07T09:44:06.277Z,15.50
2022-11-07T09:47:01.128Z,15.60
2022-11-07T09:49:42.238Z,15.70
2022-11-07T09:52:31.563Z,15.70
2022-11-07T09:55:14.533Z,15.80
2022-11-07T09:57:42.407Z,15.90
2022-11-07T10:00:20.035Z,16.00
2022-11-07T10:02:55.330Z,16.00
2022-11-07T10:05:53.794Z,16.10
2022-11-07T10:08:37.001Z,16.10
2022-11-07T10:11:29.476Z,16.10
2022-11-07T10:14:01.919Z,16.10
2022-11-07T10:16:49.013Z,16.10
2022-11-07T10:19:48.844Z,16.10
2022-11-07T10:23:15.166Z,16.00
2022-11-07T10:26:12.116Z,16.00
2022-11-07T10:29:02.659Z,16.00
2022-11-07T10:31:39.517Z,15.90
2022-11-07T10:34:36.423Z,15.90
2022-11-07T10:37:04.513Z,15.90
2022-11-07T10:39:32.104Z,15.90
2022-11-07T10:42:19.599Z,15.90
2022-11-07T10:44:47.396Z,16.00
2022-11-07T10:47:24.119Z,16.10
2022-11-07T10:50:20.592Z,16.00
2022-11-07T10:52:59.082Z,16.00
2022-11-07T10:55:27.641Z,16.00
2022-11-07T10:58:07.215Z,16.10
2022-11-07T11:00:39.666Z,16.10
2022-11-07T11:03:29.036Z,16.10
2022-11-07T11:06:22.598Z,16.10
2022-11-07T11:08:52.270Z,16.20
2022-11-07T11:11:37.474Z,16.30
2022-11-07T11:14:13.914Z,16.30
2022-11-07T11:16:43.033Z,16.40
2022-11-07T11:19:30.624Z,16.40
2022-11-07T11:21:59.219Z,16.50
2022-11-07T11:24:35.909Z,16.50
2022-11-07T11:27:12.859Z,16.60
2022-11-07T11:29:49.901Z,16.60
2022-11-07T11:32:31.656Z,16.50
2022-11-07T11:35:08.126Z,16.70
2022-11-07T11:37:41.590Z,16.70
2022-11-07T11:40:17.061Z,16.80
2022-11-07T11:43:18.832Z,16.80
2022-11-07T11:46:07.823Z,16.80
2022-11-07T11:48:39.834Z,16.80
2022-11-07T11:51:31.239Z,16.80
2022-11-07T11:53:58.131Z,16.90
2022-11-07T11:56:35.063Z,16.80
2022-11-07T11:59:42.355Z,16.90
2022-11-07T12:03:09.618Z,16.90
2022-11-07T12:06:02.925Z,17.00
2022-11-07T12:08:59.356Z,17.00
2022-11-07T12:11:59.852Z,17.00
2022-11-07T12:14:56.108Z,17.10
2022-11-07T12:17:50.720Z,17.10
2022-11-07T12:20:32.752Z,17.10
2022-11-07T12:23:34.081Z,17.10
2022-11-07T12:26:34.800Z,17.20
2022-11-07T12:29:12.226Z,17.20
2022-11-07T12:32:17.086Z,17.20
2022-11-07T12:35:17.801Z,17.30
2022-11-07T12:38:19.654Z,17.30
2022-11-07T12:41:09.817Z,17.40
2022-11-07T12:44:06.589Z,17.40
2022-11-07T12:46:58.461Z,17.50
2022-11-07T12:49:51.625Z,17.40
2022-11-07T12:52:45.974Z,17.50
2022-11-07T12:55:31.666Z,17.50
2022-11-07T12:58:01.388Z,17.50
2022-11-07T13:00:30.493Z,17.60
2022-11-07T13:03:20.326Z,17.60
2022-11-07T13:06:52.264Z,17.60
2022-11-07T13:09:49.591Z,17.60
2022-11-07T13:12:37.344Z,17.60
2022-11-07T13:15:08.785Z,17.70
2022-11-07T13:17:43.733Z,17.60
2022-11-07T13:20:24.861Z,17.60
2022-11-07T13:23:13.967Z,17.70
2022-11-07T13:25:41.064Z,17.70
2022-11-07T13:28:39.096Z,17.70
2022-11-07T13:31:33.924Z,17.70
2022-11-07T13:34:19.718Z,17.70
2022-11-07T13:36:49.893Z,17.80
2022-11-07T13:39:17.904Z,17.80
2022-11-07T13:41:46.208Z,17.70
2022-11-07T13:44:38.194Z,17.80
2022-11-07T13:47:17.315Z,17.80
2022-11-07T13:49:47.593Z,17.80
2022-11-07T13:52:31.921Z,17.80
2022-11-07T13:55:12.822Z,17.80
2022-11-07T13:57:52.535Z,17.80
2022-11-07T14:00:21.317Z,17.80
2022-11-07T14:02:57.816Z,17.80
2022-11-07T14:05:34.943Z,17.80
2022-11-07T14:08:14.700Z,17.80
2022-11-07T14:10:47.774Z,17.80
2022-11-07T14:13:24.791Z,17.60
2022-11-07T14:16:06.130Z,17.80
2022-11-07T14:18:40.158Z,17.70
2022-11-07T14:21:22.924Z,17.70
2022-11-07T14:23:49.798Z,17.70
2022-11-07T14:26:28.464Z,17.70
2022-11-07T14:28:56.854Z,17.70
2022-11-07T14:31:32.948Z,17.70
2022-11-07T14:34:15.898Z,17.70
2022-11-07T14:36:52.823Z,17.70
2022-11-07T14:39:22.560Z,17.60
2022-11-07T14:41:51.133Z,17.70
2022-11-07T14:44:36.291Z,17.60
2022-11-07T14:47:18.850Z,17.60
2022-11-07T14:49:49.757Z,17.60
2022-11-07T14:52:25.506Z,17.60
2022-11-07T14:55:21.255Z,17.50
2022-11-07T14:57:48.669Z,17.50
2022-11-07T15:00:19.412Z,17.50
2022-11-07T15:02:51.063Z,17.50
2022-11-07T15:05:26.874Z,17.50
2022-11-07T15:07:55.103Z,17.40
2022-11-07T15:10:32.104Z,17.40
2022-11-07T15:13:04.252Z,17.40
2022-11-07T15:15:36.013Z,17.30
2022-11-07T15:18:06.526Z,17.40
2022-11-07T15:20:38.230Z,17.30
2022-11-07T15:23:27.922Z,17.30
2022-11-07T15:26:07.873Z,17.30
2022-11-07T15:28:49.018Z,17.30
2022-11-07T15:31:27.798Z,17.30
2022-11-07T15:33:58.168Z,17.30
2022-11-07T15:36:25.849Z,17.20
2022-11-07T15:38:54.066Z,17.30
2022-11-07T15:41:21.004Z,17.20
2022-11-07T15:43:47.820Z,17.20
2022-11-07T15:46:35.550Z,17.20
2022-11-07T15:49:02.982Z,17.20
2022-11-07T15:51:30.942Z,17.20
2022-11-07T15:53:58.549Z,17.20
2022-11-07T15:56:26.633Z,17.20
2022-11-07T15:58:55.220Z,17.20
2022-11-07T16:01:23.518Z,17.20
2022-11-07T16:03:50.518Z,17.20
2022-11-07T16:06:31.268Z,17.20
2022-11-07T16:08:58.510Z,17.20
2022-11-07T16:11:25.473Z,17.10
2022-11-07T16:13:59.267Z,17.10
2022-11-07T16:16:34.245Z,17.10
2022-11-07T16:19:01.223Z,17.10
2022-11-07T16:21:28.023Z,17.10
2022-11-07T16:23:54.736Z,17.10
2022-11-07T16:26:28.705Z,17.10
2022-11-07T16:28:55.545Z,17.10
2022-11-07T16:31:22.465Z,17.00
2022-11-07T16:33:49.244Z,17.00
2022-11-07T16:36:26.403Z,17.00
2022-11-07T16:38:53.297Z,17.00
2022-11-07T16:41:20.054Z,16.90
2022-11-07T16:43:48.011Z,16.90
2022-11-07T16:46:21.607Z,16.90
2022-11-07T16:48:53.823Z,16.90
2022-11-07T16:51:22.378Z,16.80
2022-11-07T16:53:49.176Z,16.80
2022-11-07T16:56:28.758Z,16.70
2022-11-07T16:58:55.844Z,16.70
2022-11-07T17:01:24.952Z,16.60
2022-11-07T17:03:52.388Z,16.40
2022-11-07T17:06:32.113Z,16.50
2022-11-07T17:09:07.444Z,16.40
2022-11-07T17:11:37.787Z,16.30
2022-11-07T17:14:04.692Z,16.30
2022-11-07T17:16:35.587Z,16.30
2022-11-07T17:19:04.004Z,16.20
2022-11-07T17:21:36.919Z,16.20
2022-11-07T17:24:04.673Z,16.10
2022-11-07T17:26:38.895Z,16.10
2022-11-07T17:29:08.862Z,16.10
2022-11-07T17:31:35.603Z,16.00
2022-11-07T17:34:02.526Z,16.00
2022-11-07T17:36:38.212Z,16.00
2022-11-07T17:39:11.466Z,16.00
2022-11-07T17:41:40.872Z,16.00
2022-11-07T17:44:08.737Z,16.00
2022-11-07T17:46:41.276Z,16.00
2022-11-07T17:49:10.267Z,16.10
2022-11-07T17:51:37.006Z,16.00
2022-11-07T17:54:04.504Z,16.00
2022-11-07T17:56:33.471Z,16.00
2022-11-07T17:59:07.782Z,15.90
2022-11-07T18:01:38.162Z,16.00
2022-11-07T18:04:09.180Z,16.00
2022-11-07T18:06:39.221Z,16.10
2022-11-07T18:09:11.298Z,16.10
2022-11-07T18:11:38.004Z,16.10
2022-11-07T18:14:04.732Z,16.10
2022-11-07T18:16:36.052Z,16.10
2022-11-07T18:19:05.307Z,16.10
2022-11-07T18:21:32.722Z,16.10
2022-11-07T18:23:59.503Z,16.20
2022-11-07T18:26:33.872Z,16.20
2022-11-07T18:29:06.386Z,16.20
2022-11-07T18:31:34.597Z,16.20
2022-11-07T18:34:05.733Z,16.20
2022-11-07T18:36:37.789Z,16.30
2022-11-07T18:39:08.951Z,16.30
2022-11-07T18:41:35.968Z,16.30
2022-11-07T18:44:05.087Z,16.30
2022-11-07T18:46:32.796Z,16.30
2022-11-07T18:48:59.943Z,16.30
2022-11-07T18:51:26.720Z,16.30
2022-11-07T18:53:54.526Z,16.30
2022-11-07T18:56:21.900Z,16.30
2022-11-07T18:58:48.875Z,16.30
2022-11-07T19:01:19.826Z,16.30
2022-11-07T19:03:47.202Z,16.40
2022-11-07T19:06:18.766Z,16.30
2022-11-07T19:08:47.760Z,16.30
2022-11-07T19:11:19.598Z,16.30
2022-11-07T19:13:47.795Z,16.30
2022-11-07T19:16:17.381Z,16.20
2022-11-07T19:18:49.351Z,16.20
2022-11-07T19:21:20.342Z,16.10
2022-11-07T19:23:48.629Z,16.10
2022-11-07T19:26:16.273Z,16.10
2022-11-07T19:28:43.066Z,16.00
2022-11-07T19:31:12.892Z,16.00
2022-11-07T19:33:41.618Z,15.90
2022-11-07T19:36:17.449Z,15.90
2022-11-07T19:38:45.267Z,15.90
2022-11-07T19:41:14.208Z,15.90
2022-11-07T19:43:42.972Z,15.90
2022-11-07T19:46:15.366Z,15.90
2022-11-07T19:48:42.786Z,15.90
2022-11-07T19:51:20.900Z,15.90
2022-11-07T19:53:56.477Z,15.80
2022-11-07T19:56:26.554Z,15.90
2022-11-07T19:58:54.462Z,15.90
2022-11-07T20:01:28.091Z,15.90
2022-11-07T20:03:56.277Z,15.80
2022-11-07T20:06:39.359Z,15.90
2022-11-07T20:09:09.477Z,15.90
2022-11-07T20:11:36.830Z,15.90
2022-11-07T20:14:04.420Z,15.80
2022-11-07T20:16:33.743Z,15.80
2022-11-07T20:19:01.665Z,15.90
2022-11-07T20:21:29.353Z,15.90
2022-11-07T20:23:58.059Z,15.90
2022-11-07T20:26:26.740Z,15.90
2022-11-07T20:28:53.827Z,15.90
2022-11-07T20:31:30.762Z,15.90
2022-11-07T20:34:04.062Z,15.90
2022-11-07T20:36:32.076Z,15.90
2022-11-07T20:39:01.130Z,16.00
2022-11-07T20:41:28.585Z,15.90
2022-11-07T20:43:59.849Z,16.00
2022-11-07T20:46:27.015Z,16.00
2022-11-07T20:48:54.282Z,16.00
2022-11-07T20:51:25.154Z,15.90
2022-11-07T20:53:52.919Z,16.00
2022-11-07T20:56:22.309Z,16.00
2022-11-07T20:58:50.139Z,16.00
2022-11-07T21:01:21.571Z,16.00
2022-11-07T21:03:49.705Z,15.90
2022-11-07T21:06:17.643Z,15.90
2022-11-07T21:08:48.182Z,16.00
2022-11-07T21:11:17.547Z,16.00
2022-11-07T21:13:49.681Z,16.00
2022-11-07T21:16:24.562Z,16.00
2022-11-07T21:18:53.129Z,16.00
2022-11-07T21:21:27.559Z,16.00
2022-11-07T21:23:57.185Z,15.90
2022-11-07T21:26:34.298Z,15.90
2022-11-07T21:29:05.866Z,15.90
2022-11-07T21:31:33.835Z,15.90
2022-11-07T21:34:00.590Z,15.90
2022-11-07T21:36:30.192Z,15.90
2022-11-07T21:38:59.447Z,15.80
2022-11-07T21:41:27.113Z,15.80
2022-11-07T21:43:53.838Z,15.70
2022-11-07T21:46:31.773Z,15.70
2022-11-07T21:48:58.801Z,15.70
2022-11-07T21:51:29.835Z,15.70
2022-11-07T21:53:58.055Z,15.70
2022-11-07T21:56:28.103Z,15.70
2022-11-07T21:59:13.275Z,15.70
2022-11-07T22:01:41.202Z,15.80
2022-11-07T22:04:12.526Z,15.70
2022-11-07T22:06:45.324Z,15.70
2022-11-07T22:09:18.349Z,15.70
2022-11-07T22:11:46.354Z,15.70
2022-11-07T22:14:16.933Z,15.70
2022-11-07T22:16:44.011Z,15.60
2022-11-07T22:19:12.811Z,15.60
2022-11-07T22:21:40.107Z,15.70
2022-11-07T22:24:07.346Z,15.70
2022-11-07T22:26:34.157Z,15.70
2022-11-07T22:29:00.875Z,15.60
2022-11-07T22:31:30.472Z,15.60
2022-11-07T22:33:59.799Z,15.60
2022-11-07T22:36:26.931Z,15.60
2022-11-07T22:38:56.386Z,15.60
2022-11-07T22:41:25.506Z,15.60
2022-11-07T22:43:53.036Z,15.50
2022-11-07T22:46:30.058Z,15.50
2022-11-07T22:48:58.781Z,15.50
2022-11-07T22:51:33.024Z,15.40
2022-11-07T22:54:07.254Z,15.40
2022-11-07T22:56:36.258Z,15.40
2022-11-07T22:59:05.034Z,15.30
2022-11-07T23:01:38.885Z,15.30
2022-11-07T23:04:06.986Z,15.30
2022-11-07T23:06:34.123Z,15.30
2022-11-07T23:09:01.615Z,15.30
2022-11-07T23:11:48.877Z,15.20
2022-11-07T23:14:20.870Z,15.20
2022-11-07T23:16:52.036Z,15.20
2022-11-07T23:19:22.633Z,15.10
2022-11-07T23:21:52.216Z,15.20
2022-11-07T23:24:20.483Z,15.10
2022-11-07T23:26:47.712Z,15.10
2022-11-07T23:29:19.617Z,15.10
2022-11-07T23:31:48.685Z,15.10
2022-11-07T23:34:16.733Z,15.10
2022-11-07T23:36:44.841Z,15.10
2022-11-07T23:39:17.865Z,15.10
2022-11-07T23:41:45.087Z,15.10
2022-11-07T23:44:12.641Z,15.00
2022-11-07T23:46:58.724Z,15.10
2022-11-07T23:49:54.970Z,15.00
2022-11-07T23:52:22.037Z,15.00
2022-11-07T23:55:07.683Z,15.10
2022-11-07T23:57:56.649Z,15.10
